Terminal Aerodrome Forecast
Issued by NWS

Current Version | Previous Version | Text Only | Print | Product List | Glossary On
Versions: 1 2 3 4 5 6 7 8 9 10 11 12 13 14 15 16 17 18 19 20 21
000
FTUS41 KPBZ 161700
TAFDUJ
TAF
KDUJ 161726Z 1618/1718 33006KT P6SM BKN045
     FM162200 31004KT P6SM SCT045
     FM170700 00000KT 4SM BR SKC
     FM170900 00000KT 1SM BR SCT002
     FM171500 VRB03KT P6SM SCT040=

USA.gov is the U.S. government's official web portal to all federal, state and local government web resources and services.